sensor_id;sensor_type;location;lat;lon;timestamp;temperature;humidity
74511;DHT22;62991;50.040;18.400;2023-11-22T00:00:41;2.00;78.40
74511;DHT22;62991;50.040;18.400;2023-11-22T00:03:41;2.10;79.20
74511;DHT22;62991;50.040;18.400;2023-11-22T00:06:42;2.10;79.00
74511;DHT22;62991;50.040;18.400;2023-11-22T00:09:43;2.00;78.70
74511;DHT22;62991;50.040;18.400;2023-11-22T00:12:43;1.90;79.00
74511;DHT22;62991;50.040;18.400;2023-11-22T00:15:44;1.90;79.40
74511;DHT22;62991;50.040;18.400;2023-11-22T00:18:45;1.90;79.50
74511;DHT22;62991;50.040;18.400;2023-11-22T00:21:46;1.90;79.30
74511;DHT22;62991;50.040;18.400;2023-11-22T00:24:46;1.90;79.50
74511;DHT22;62991;50.040;18.400;2023-11-22T00:27:50;1.80;79.80
74511;DHT22;62991;50.040;18.400;2023-11-22T00:30:51;1.80;79.90
74511;DHT22;62991;50.040;18.400;2023-11-22T00:33:52;1.90;79.60
74511;DHT22;62991;50.040;18.400;2023-11-22T00:36:53;1.80;79.60
74511;DHT22;62991;50.040;18.400;2023-11-22T00:39:53;1.80;80.10
74511;DHT22;62991;50.040;18.400;2023-11-22T00:42:54;1.70;80.50
74511;DHT22;62991;50.040;18.400;2023-11-22T00:45:54;1.90;80.00
74511;DHT22;62991;50.040;18.400;2023-11-22T00:48:57;2.00;79.70
74511;DHT22;62991;50.040;18.400;2023-11-22T00:51:58;2.00;80.00
74511;DHT22;62991;50.040;18.400;2023-11-22T00:54:59;1.90;79.50
74511;DHT22;62991;50.040;18.400;2023-11-22T00:58:00;1.80;79.70
74511;DHT22;62991;50.040;18.400;2023-11-22T01:01:04;1.80;79.50
74511;DHT22;62991;50.040;18.400;2023-11-22T01:04:05;1.90;79.30
74511;DHT22;62991;50.040;18.400;2023-11-22T01:07:07;1.80;79.40
74511;DHT22;62991;50.040;18.400;2023-11-22T01:10:08;1.70;79.80
74511;DHT22;62991;50.040;18.400;2023-11-22T01:13:10;1.80;79.10
74511;DHT22;62991;50.040;18.400;2023-11-22T01:16:11;1.80;79.80
74511;DHT22;62991;50.040;18.400;2023-11-22T01:19:13;1.90;79.20
74511;DHT22;62991;50.040;18.400;2023-11-22T01:22:13;2.00;78.80
74511;DHT22;62991;50.040;18.400;2023-11-22T01:25:14;2.00;79.00
74511;DHT22;62991;50.040;18.400;2023-11-22T01:28:15;1.60;79.10
74511;DHT22;62991;50.040;18.400;2023-11-22T01:31:17;1.50;79.90
74511;DHT22;62991;50.040;18.400;2023-11-22T01:34:21;1.50;80.40
74511;DHT22;62991;50.040;18.400;2023-11-22T01:37:22;1.50;80.50
74511;DHT22;62991;50.040;18.400;2023-11-22T01:40:22;1.60;80.40
74511;DHT22;62991;50.040;18.400;2023-11-22T01:43:26;1.60;79.90
74511;DHT22;62991;50.040;18.400;2023-11-22T01:46:27;1.60;79.70
74511;DHT22;62991;50.040;18.400;2023-11-22T01:49:28;1.70;80.00
74511;DHT22;62991;50.040;18.400;2023-11-22T01:52:30;1.70;80.10
74511;DHT22;62991;50.040;18.400;2023-11-22T01:55:30;1.70;78.90
74511;DHT22;62991;50.040;18.400;2023-11-22T01:58:31;1.70;78.70
74511;DHT22;62991;50.040;18.400;2023-11-22T02:01:32;1.60;78.90
74511;DHT22;62991;50.040;18.400;2023-11-22T02:04:33;1.50;79.40
74511;DHT22;62991;50.040;18.400;2023-11-22T02:07:33;1.60;79.30
74511;DHT22;62991;50.040;18.400;2023-11-22T02:10:34;1.70;78.80
74511;DHT22;62991;50.040;18.400;2023-11-22T02:13:37;1.70;78.30
74511;DHT22;62991;50.040;18.400;2023-11-22T02:16:38;1.80;77.60
74511;DHT22;62991;50.040;18.400;2023-11-22T02:19:40;1.80;77.30
74511;DHT22;62991;50.040;18.400;2023-11-22T02:22:47;1.70;77.70
74511;DHT22;62991;50.040;18.400;2023-11-22T02:25:48;1.70;77.90
74511;DHT22;62991;50.040;18.400;2023-11-22T02:28:49;1.70;78.00
74511;DHT22;62991;50.040;18.400;2023-11-22T02:31:50;1.80;77.60
74511;DHT22;62991;50.040;18.400;2023-11-22T02:34:50;1.70;77.30
74511;DHT22;62991;50.040;18.400;2023-11-22T02:37:51;1.60;77.70
74511;DHT22;62991;50.040;18.400;2023-11-22T02:40:52;1.60;77.70
74511;DHT22;62991;50.040;18.400;2023-11-22T02:43:53;1.60;77.60
74511;DHT22;62991;50.040;18.400;2023-11-22T02:46:54;1.70;77.80
74511;DHT22;62991;50.040;18.400;2023-11-22T02:49:55;1.70;78.20
74511;DHT22;62991;50.040;18.400;2023-11-22T02:52:55;1.80;77.90
74511;DHT22;62991;50.040;18.400;2023-11-22T02:55:59;1.90;77.70
74511;DHT22;62991;50.040;18.400;2023-11-22T02:59:00;2.00;77.50
74511;DHT22;62991;50.040;18.400;2023-11-22T03:02:01;2.00;76.80
74511;DHT22;62991;50.040;18.400;2023-11-22T03:05:02;1.80;76.80
74511;DHT22;62991;50.040;18.400;2023-11-22T03:08:03;1.70;77.10
74511;DHT22;62991;50.040;18.400;2023-11-22T03:11:04;1.50;77.90
74511;DHT22;62991;50.040;18.400;2023-11-22T03:14:05;1.60;78.10
74511;DHT22;62991;50.040;18.400;2023-11-22T03:17:06;1.60;77.70
74511;DHT22;62991;50.040;18.400;2023-11-22T03:20:07;1.40;77.30
74511;DHT22;62991;50.040;18.400;2023-11-22T03:23:11;1.40;77.60
74511;DHT22;62991;50.040;18.400;2023-11-22T03:26:12;1.40;77.60
74511;DHT22;62991;50.040;18.400;2023-11-22T03:29:14;1.50;78.00
74511;DHT22;62991;50.040;18.400;2023-11-22T03:32:16;1.50;77.70
74511;DHT22;62991;50.040;18.400;2023-11-22T03:35:17;1.30;77.30
74511;DHT22;62991;50.040;18.400;2023-11-22T03:38:18;1.30;78.40
74511;DHT22;62991;50.040;18.400;2023-11-22T03:41:19;1.40;77.70
74511;DHT22;62991;50.040;18.400;2023-11-22T03:44:19;1.20;78.00
74511;DHT22;62991;50.040;18.400;2023-11-22T03:47:20;1.20;77.70
74511;DHT22;62991;50.040;18.400;2023-11-22T03:50:21;1.20;78.00
74511;DHT22;62991;50.040;18.400;2023-11-22T03:53:22;1.10;77.80
74511;DHT22;62991;50.040;18.400;2023-11-22T03:56:23;0.90;78.70
74511;DHT22;62991;50.040;18.400;2023-11-22T03:59:23;1.00;78.90
74511;DHT22;62991;50.040;18.400;2023-11-22T04:02:24;1.10;78.10
74511;DHT22;62991;50.040;18.400;2023-11-22T04:05:25;1.10;78.40
74511;DHT22;62991;50.040;18.400;2023-11-22T04:08:26;0.90;78.40
74511;DHT22;62991;50.040;18.400;2023-11-22T04:11:27;1.00;78.00
74511;DHT22;62991;50.040;18.400;2023-11-22T04:14:29;1.10;77.80
74511;DHT22;62991;50.040;18.400;2023-11-22T04:17:30;1.10;78.30
74511;DHT22;62991;50.040;18.400;2023-11-22T04:20:31;1.10;78.20
74511;DHT22;62991;50.040;18.400;2023-11-22T04:23:32;1.10;78.40
74511;DHT22;62991;50.040;18.400;2023-11-22T04:26:32;1.20;77.90
74511;DHT22;62991;50.040;18.400;2023-11-22T04:29:33;1.10;77.40
74511;DHT22;62991;50.040;18.400;2023-11-22T04:32:37;0.90;77.70
74511;DHT22;62991;50.040;18.400;2023-11-22T04:35:37;0.80;78.70
74511;DHT22;62991;50.040;18.400;2023-11-22T04:38:39;0.80;78.60
74511;DHT22;62991;50.040;18.400;2023-11-22T04:41:40;0.60;79.00
74511;DHT22;62991;50.040;18.400;2023-11-22T04:44:40;0.60;78.70
74511;DHT22;62991;50.040;18.400;2023-11-22T04:47:41;0.60;79.20
74511;DHT22;62991;50.040;18.400;2023-11-22T04:50:42;0.70;79.10
74511;DHT22;62991;50.040;18.400;2023-11-22T04:53:43;0.70;78.70
74511;DHT22;62991;50.040;18.400;2023-11-22T04:56:44;0.90;78.80
74511;DHT22;62991;50.040;18.400;2023-11-22T04:59:45;0.90;78.20
74511;DHT22;62991;50.040;18.400;2023-11-22T05:02:46;0.80;77.80
74511;DHT22;62991;50.040;18.400;2023-11-22T05:05:47;0.70;78.40
74511;DHT22;62991;50.040;18.400;2023-11-22T05:08:48;0.80;77.90
74511;DHT22;62991;50.040;18.400;2023-11-22T05:11:49;0.70;77.80
74511;DHT22;62991;50.040;18.400;2023-11-22T05:14:49;0.70;77.90
74511;DHT22;62991;50.040;18.400;2023-11-22T05:17:50;0.50;77.70
74511;DHT22;62991;50.040;18.400;2023-11-22T05:20:51;0.50;78.50
74511;DHT22;62991;50.040;18.400;2023-11-22T05:23:52;0.50;78.50
74511;DHT22;62991;50.040;18.400;2023-11-22T05:26:54;0.60;78.30
74511;DHT22;62991;50.040;18.400;2023-11-22T05:29:55;0.60;77.90
74511;DHT22;62991;50.040;18.400;2023-11-22T05:32:57;0.60;77.50
74511;DHT22;62991;50.040;18.400;2023-11-22T05:35:58;0.50;78.00
74511;DHT22;62991;50.040;18.400;2023-11-22T05:38:58;0.40;78.40
74511;DHT22;62991;50.040;18.400;2023-11-22T05:41:59;0.50;78.60
74511;DHT22;62991;50.040;18.400;2023-11-22T05:45:01;0.70;77.90
74511;DHT22;62991;50.040;18.400;2023-11-22T05:48:02;0.80;77.60
74511;DHT22;62991;50.040;18.400;2023-11-22T05:51:02;0.80;77.10
74511;DHT22;62991;50.040;18.400;2023-11-22T05:54:04;0.80;77.00
74511;DHT22;62991;50.040;18.400;2023-11-22T05:57:04;1.00;76.70
74511;DHT22;62991;50.040;18.400;2023-11-22T06:00:06;1.00;76.30
74511;DHT22;62991;50.040;18.400;2023-11-22T06:03:07;1.00;76.20
74511;DHT22;62991;50.040;18.400;2023-11-22T06:06:08;1.00;76.00
74511;DHT22;62991;50.040;18.400;2023-11-22T06:09:09;0.90;75.90
74511;DHT22;62991;50.040;18.400;2023-11-22T06:12:13;1.00;75.50
74511;DHT22;62991;50.040;18.400;2023-11-22T06:15:13;0.90;75.70
74511;DHT22;62991;50.040;18.400;2023-11-22T06:18:14;0.80;75.70
74511;DHT22;62991;50.040;18.400;2023-11-22T06:21:16;0.90;76.20
74511;DHT22;62991;50.040;18.400;2023-11-22T06:24:17;0.80;75.60
74511;DHT22;62991;50.040;18.400;2023-11-22T06:27:18;1.00;76.00
74511;DHT22;62991;50.040;18.400;2023-11-22T06:30:19;0.90;75.80
74511;DHT22;62991;50.040;18.400;2023-11-22T06:33:19;0.90;75.80
74511;DHT22;62991;50.040;18.400;2023-11-22T06:36:20;0.90;76.60
74511;DHT22;62991;50.040;18.400;2023-11-22T06:39:21;1.00;76.30
74511;DHT22;62991;50.040;18.400;2023-11-22T06:42:23;1.10;75.50
74511;DHT22;62991;50.040;18.400;2023-11-22T06:45:23;1.00;75.60
74511;DHT22;62991;50.040;18.400;2023-11-22T06:48:24;0.90;75.60
74511;DHT22;62991;50.040;18.400;2023-11-22T06:51:25;0.90;75.60
74511;DHT22;62991;50.040;18.400;2023-11-22T06:54:26;0.80;75.80
74511;DHT22;62991;50.040;18.400;2023-11-22T06:57:27;0.80;76.20
74511;DHT22;62991;50.040;18.400;2023-11-22T07:00:29;0.70;76.30
74511;DHT22;62991;50.040;18.400;2023-11-22T07:03:31;0.60;76.60
74511;DHT22;62991;50.040;18.400;2023-11-22T07:06:32;0.50;76.70
74511;DHT22;62991;50.040;18.400;2023-11-22T07:09:32;0.50;76.50
74511;DHT22;62991;50.040;18.400;2023-11-22T07:12:33;0.40;76.30
74511;DHT22;62991;50.040;18.400;2023-11-22T07:15:37;0.50;76.30
74511;DHT22;62991;50.040;18.400;2023-11-22T07:18:38;0.50;76.20
74511;DHT22;62991;50.040;18.400;2023-11-22T07:21:38;0.60;75.00
74511;DHT22;62991;50.040;18.400;2023-11-22T07:24:40;0.50;75.50
74511;DHT22;62991;50.040;18.400;2023-11-22T07:27:47;0.50;75.60
74511;DHT22;62991;50.040;18.400;2023-11-22T07:30:48;0.60;75.80
74511;DHT22;62991;50.040;18.400;2023-11-22T07:33:49;0.60;75.10
74511;DHT22;62991;50.040;18.400;2023-11-22T07:36:50;0.70;74.80
74511;DHT22;62991;50.040;18.400;2023-11-22T07:39:51;0.70;74.80
74511;DHT22;62991;50.040;18.400;2023-11-22T07:42:53;0.80;74.30
74511;DHT22;62991;50.040;18.400;2023-11-22T07:45:54;0.70;74.70
74511;DHT22;62991;50.040;18.400;2023-11-22T07:48:55;0.80;74.20
74511;DHT22;62991;50.040;18.400;2023-11-22T07:51:56;0.70;74.50
74511;DHT22;62991;50.040;18.400;2023-11-22T07:54:57;0.90;74.40
74511;DHT22;62991;50.040;18.400;2023-11-22T07:57:58;0.90;74.10
74511;DHT22;62991;50.040;18.400;2023-11-22T08:00:59;0.80;74.50
74511;DHT22;62991;50.040;18.400;2023-11-22T08:04:00;0.90;74.40
74511;DHT22;62991;50.040;18.400;2023-11-22T08:07:00;0.80;74.30
74511;DHT22;62991;50.040;18.400;2023-11-22T08:10:02;0.90;74.30
74511;DHT22;62991;50.040;18.400;2023-11-22T08:13:09;1.00;74.80
74511;DHT22;62991;50.040;18.400;2023-11-22T08:16:10;1.10;73.70
74511;DHT22;62991;50.040;18.400;2023-11-22T08:19:13;1.10;73.30
74511;DHT22;62991;50.040;18.400;2023-11-22T08:22:14;1.00;73.20
74511;DHT22;62991;50.040;18.400;2023-11-22T08:25:14;1.10;73.70
74511;DHT22;62991;50.040;18.400;2023-11-22T08:28:16;1.00;73.30
74511;DHT22;62991;50.040;18.400;2023-11-22T08:31:16;1.00;73.50
74511;DHT22;62991;50.040;18.400;2023-11-22T08:34:17;1.00;73.60
74511;DHT22;62991;50.040;18.400;2023-11-22T08:37:18;0.90;73.50
74511;DHT22;62991;50.040;18.400;2023-11-22T08:40:19;0.80;74.30
74511;DHT22;62991;50.040;18.400;2023-11-22T08:43:22;0.80;74.10
74511;DHT22;62991;50.040;18.400;2023-11-22T08:46:26;0.90;74.10
74511;DHT22;62991;50.040;18.400;2023-11-22T08:49:27;1.00;73.90
74511;DHT22;62991;50.040;18.400;2023-11-22T08:52:28;1.00;73.80
74511;DHT22;62991;50.040;18.400;2023-11-22T08:55:31;1.00;73.80
74511;DHT22;62991;50.040;18.400;2023-11-22T08:58:34;1.00;74.10
74511;DHT22;62991;50.040;18.400;2023-11-22T09:01:35;1.30;74.10
74511;DHT22;62991;50.040;18.400;2023-11-22T09:04:36;1.40;73.50
74511;DHT22;62991;50.040;18.400;2023-11-22T09:07:38;1.60;72.00
74511;DHT22;62991;50.040;18.400;2023-11-22T09:10:39;1.70;72.20
74511;DHT22;62991;50.040;18.400;2023-11-22T09:13:41;1.50;72.20
74511;DHT22;62991;50.040;18.400;2023-11-22T09:16:42;1.40;71.90
74511;DHT22;62991;50.040;18.400;2023-11-22T09:19:44;1.00;72.10
74511;DHT22;62991;50.040;18.400;2023-11-22T09:22:46;1.20;73.30
74511;DHT22;62991;50.040;18.400;2023-11-22T09:25:51;1.00;72.80
74511;DHT22;62991;50.040;18.400;2023-11-22T09:28:51;0.80;74.40
74511;DHT22;62991;50.040;18.400;2023-11-22T09:31:54;1.20;73.60
74511;DHT22;62991;50.040;18.400;2023-11-22T09:34:55;0.90;73.20
74511;DHT22;62991;50.040;18.400;2023-11-22T09:38:03;0.90;74.40
74511;DHT22;62991;50.040;18.400;2023-11-22T09:41:04;0.90;73.70
74511;DHT22;62991;50.040;18.400;2023-11-22T09:44:05;0.80;74.00
74511;DHT22;62991;50.040;18.400;2023-11-22T09:47:06;0.90;73.10
74511;DHT22;62991;50.040;18.400;2023-11-22T09:50:09;1.00;74.00
74511;DHT22;62991;50.040;18.400;2023-11-22T09:53:25;0.90;73.50
74511;DHT22;62991;50.040;18.400;2023-11-22T09:56:27;0.80;74.40
74511;DHT22;62991;50.040;18.400;2023-11-22T09:59:28;0.80;73.50
74511;DHT22;62991;50.040;18.400;2023-11-22T10:02:29;0.80;73.40
74511;DHT22;62991;50.040;18.400;2023-11-22T10:05:30;0.80;74.00
74511;DHT22;62991;50.040;18.400;2023-11-22T10:08:31;0.70;73.60
74511;DHT22;62991;50.040;18.400;2023-11-22T10:11:32;1.00;72.90
74511;DHT22;62991;50.040;18.400;2023-11-22T10:14:33;0.70;73.20
74511;DHT22;62991;50.040;18.400;2023-11-22T10:17:34;0.80;73.00
74511;DHT22;62991;50.040;18.400;2023-11-22T10:20:40;0.80;72.60
74511;DHT22;62991;50.040;18.400;2023-11-22T10:23:41;0.60;72.60
74511;DHT22;62991;50.040;18.400;2023-11-22T10:26:41;0.70;73.10
74511;DHT22;62991;50.040;18.400;2023-11-22T10:29:42;0.70;72.20
74511;DHT22;62991;50.040;18.400;2023-11-22T10:32:45;0.70;72.40
74511;DHT22;62991;50.040;18.400;2023-11-22T10:35:47;0.70;73.40
74511;DHT22;62991;50.040;18.400;2023-11-22T10:38:48;0.70;71.90
74511;DHT22;62991;50.040;18.400;2023-11-22T10:41:51;0.60;72.30
74511;DHT22;62991;50.040;18.400;2023-11-22T10:44:56;0.80;72.20
74511;DHT22;62991;50.040;18.400;2023-11-22T10:48:00;0.80;71.70
74511;DHT22;62991;50.040;18.400;2023-11-22T10:51:02;0.80;71.50
74511;DHT22;62991;50.040;18.400;2023-11-22T10:54:05;0.90;72.20
74511;DHT22;62991;50.040;18.400;2023-11-22T10:57:08;0.90;70.80
74511;DHT22;62991;50.040;18.400;2023-11-22T11:00:10;1.10;70.80
74511;DHT22;62991;50.040;18.400;2023-11-22T11:03:18;1.10;70.50
74511;DHT22;62991;50.040;18.400;2023-11-22T11:06:32;1.20;71.20
74511;DHT22;62991;50.040;18.400;2023-11-22T11:09:34;1.60;72.00
74511;DHT22;62991;50.040;18.400;2023-11-22T11:12:36;1.90;69.50
74511;DHT22;62991;50.040;18.400;2023-11-22T11:15:44;2.10;68.50
74511;DHT22;62991;50.040;18.400;2023-11-22T11:18:46;1.90;68.70
74511;DHT22;62991;50.040;18.400;2023-11-22T11:21:47;1.50;69.30
74511;DHT22;62991;50.040;18.400;2023-11-22T11:24:48;1.50;70.30
74511;DHT22;62991;50.040;18.400;2023-11-22T11:27:58;1.50;70.00
74511;DHT22;62991;50.040;18.400;2023-11-22T11:30:59;1.20;69.80
74511;DHT22;62991;50.040;18.400;2023-11-22T11:34:00;1.10;70.80
74511;DHT22;62991;50.040;18.400;2023-11-22T11:37:00;1.30;70.70
74511;DHT22;62991;50.040;18.400;2023-11-22T11:40:25;1.30;70.50
74511;DHT22;62991;50.040;18.400;2023-11-22T11:43:48;1.40;70.10
74511;DHT22;62991;50.040;18.400;2023-11-22T11:46:52;1.40;70.60
74511;DHT22;62991;50.040;18.400;2023-11-22T11:49:54;1.10;69.70
74511;DHT22;62991;50.040;18.400;2023-11-22T11:52:55;1.00;71.00
74511;DHT22;62991;50.040;18.400;2023-11-22T11:55:56;1.10;71.20
74511;DHT22;62991;50.040;18.400;2023-11-22T11:58:58;0.90;70.40
74511;DHT22;62991;50.040;18.400;2023-11-22T12:02:01;0.80;71.30
74511;DHT22;62991;50.040;18.400;2023-11-22T12:05:06;0.70;71.40
74511;DHT22;62991;50.040;18.400;2023-11-22T12:08:09;0.80;71.40
74511;DHT22;62991;50.040;18.400;2023-11-22T12:11:09;0.90;71.60
74511;DHT22;62991;50.040;18.400;2023-11-22T12:14:11;1.20;70.60
74511;DHT22;62991;50.040;18.400;2023-11-22T12:17:11;1.50;70.50
74511;DHT22;62991;50.040;18.400;2023-11-22T12:20:15;1.40;69.30
74511;DHT22;62991;50.040;18.400;2023-11-22T12:23:17;1.20;69.10
74511;DHT22;62991;50.040;18.400;2023-11-22T12:26:20;0.90;69.10
74511;DHT22;62991;50.040;18.400;2023-11-22T12:29:23;0.70;70.20
74511;DHT22;62991;50.040;18.400;2023-11-22T12:32:25;0.70;70.70
74511;DHT22;62991;50.040;18.400;2023-11-22T12:35:26;0.80;70.40
74511;DHT22;62991;50.040;18.400;2023-11-22T12:38:27;0.50;71.40
74511;DHT22;62991;50.040;18.400;2023-11-22T12:41:30;0.70;71.90
74511;DHT22;62991;50.040;18.400;2023-11-22T12:44:31;0.80;71.00
74511;DHT22;62991;50.040;18.400;2023-11-22T12:47:34;0.90;70.90
74511;DHT22;62991;50.040;18.400;2023-11-22T12:50:38;0.90;70.10
74511;DHT22;62991;50.040;18.400;2023-11-22T12:53:42;0.90;70.50
74511;DHT22;62991;50.040;18.400;2023-11-22T12:56:45;0.90;70.70
74511;DHT22;62991;50.040;18.400;2023-11-22T12:59:46;0.80;70.40
74511;DHT22;62991;50.040;18.400;2023-11-22T13:02:47;0.80;70.80
74511;DHT22;62991;50.040;18.400;2023-11-22T13:05:47;1.00;69.50
74511;DHT22;62991;50.040;18.400;2023-11-22T13:08:48;0.90;68.90
74511;DHT22;62991;50.040;18.400;2023-11-22T13:11:49;0.70;69.70
74511;DHT22;62991;50.040;18.400;2023-11-22T13:14:52;0.80;69.60
74511;DHT22;62991;50.040;18.400;2023-11-22T13:17:53;0.70;70.50
74511;DHT22;62991;50.040;18.400;2023-11-22T13:20:55;0.90;70.40
74511;DHT22;62991;50.040;18.400;2023-11-22T13:23:56;1.00;68.70
74511;DHT22;62991;50.040;18.400;2023-11-22T13:26:59;0.90;69.50
74511;DHT22;62991;50.040;18.400;2023-11-22T13:29:59;0.90;68.50
74511;DHT22;62991;50.040;18.400;2023-11-22T13:33:01;0.90;69.10
74511;DHT22;62991;50.040;18.400;2023-11-22T13:36:03;0.70;69.70
74511;DHT22;62991;50.040;18.400;2023-11-22T13:39:04;0.70;69.30
74511;DHT22;62991;50.040;18.400;2023-11-22T13:42:05;0.60;70.10
74511;DHT22;62991;50.040;18.400;2023-11-22T13:45:06;0.60;70.60
74511;DHT22;62991;50.040;18.400;2023-11-22T13:48:07;1.10;74.90
74511;DHT22;62991;50.040;18.400;2023-11-22T13:51:09;1.10;70.60
74511;DHT22;62991;50.040;18.400;2023-11-22T13:54:11;1.30;69.30
74511;DHT22;62991;50.040;18.400;2023-11-22T13:57:14;1.70;73.50
74511;DHT22;62991;50.040;18.400;2023-11-22T14:00:15;1.90;71.30
74511;DHT22;62991;50.040;18.400;2023-11-22T14:03:19;2.20;71.00
74511;DHT22;62991;50.040;18.400;2023-11-22T14:06:22;2.60;68.20
74511;DHT22;62991;50.040;18.400;2023-11-22T14:09:23;2.60;67.30
74511;DHT22;62991;50.040;18.400;2023-11-22T14:12:24;2.60;66.80
74511;DHT22;62991;50.040;18.400;2023-11-22T14:15:25;2.80;65.20
74511;DHT22;62991;50.040;18.400;2023-11-22T14:18:26;2.40;67.80
74511;DHT22;62991;50.040;18.400;2023-11-22T14:21:27;2.60;65.20
74511;DHT22;62991;50.040;18.400;2023-11-22T14:24:29;2.00;63.60
74511;DHT22;62991;50.040;18.400;2023-11-22T14:27:30;1.40;65.80
74511;DHT22;62991;50.040;18.400;2023-11-22T14:30:31;1.30;66.50
74511;DHT22;62991;50.040;18.400;2023-11-22T14:33:35;1.30;66.10
74511;DHT22;62991;50.040;18.400;2023-11-22T14:36:36;1.10;67.10
74511;DHT22;62991;50.040;18.400;2023-11-22T14:39:40;1.00;67.10
74511;DHT22;62991;50.040;18.400;2023-11-22T14:42:43;0.80;67.10
74511;DHT22;62991;50.040;18.400;2023-11-22T14:45:52;0.80;67.30
74511;DHT22;62991;50.040;18.400;2023-11-22T14:48:53;1.00;67.50
74511;DHT22;62991;50.040;18.400;2023-11-22T14:51:53;1.20;66.60
74511;DHT22;62991;50.040;18.400;2023-11-22T14:54:55;1.20;66.60
74511;DHT22;62991;50.040;18.400;2023-11-22T14:57:56;1.30;67.10
74511;DHT22;62991;50.040;18.400;2023-11-22T15:00:59;1.30;67.00
74511;DHT22;62991;50.040;18.400;2023-11-22T15:04:00;1.10;67.40
74511;DHT22;62991;50.040;18.400;2023-11-22T15:07:01;1.10;67.30
74511;DHT22;62991;50.040;18.400;2023-11-22T15:10:02;1.10;67.70
74511;DHT22;62991;50.040;18.400;2023-11-22T15:13:02;0.70;68.10
74511;DHT22;62991;50.040;18.400;2023-11-22T15:16:03;0.80;68.40
74511;DHT22;62991;50.040;18.400;2023-11-22T15:19:04;0.80;68.20
74511;DHT22;62991;50.040;18.400;2023-11-22T15:22:07;0.70;68.10
74511;DHT22;62991;50.040;18.400;2023-11-22T15:25:08;0.60;68.10
74511;DHT22;62991;50.040;18.400;2023-11-22T15:28:10;0.80;67.80
74511;DHT22;62991;50.040;18.400;2023-11-22T15:31:15;0.90;67.70
74511;DHT22;62991;50.040;18.400;2023-11-22T15:34:16;0.60;67.20
74511;DHT22;62991;50.040;18.400;2023-11-22T15:37:17;0.40;67.40
74511;DHT22;62991;50.040;18.400;2023-11-22T15:40:17;0.50;67.60
74511;DHT22;62991;50.040;18.400;2023-11-22T15:43:18;0.60;66.60
74511;DHT22;62991;50.040;18.400;2023-11-22T15:46:19;0.80;66.80
74511;DHT22;62991;50.040;18.400;2023-11-22T15:49:24;0.80;67.20
74511;DHT22;62991;50.040;18.400;2023-11-22T15:52:25;0.90;67.00
74511;DHT22;62991;50.040;18.400;2023-11-22T15:55:27;0.70;66.90
74511;DHT22;62991;50.040;18.400;2023-11-22T15:58:28;0.60;67.30
74511;DHT22;62991;50.040;18.400;2023-11-22T16:01:29;0.50;67.90
74511;DHT22;62991;50.040;18.400;2023-11-22T16:04:30;0.60;69.40
74511;DHT22;62991;50.040;18.400;2023-11-22T16:07:31;1.00;68.60
74511;DHT22;62991;50.040;18.400;2023-11-22T16:10:31;1.10;67.50
74511;DHT22;62991;50.040;18.400;2023-11-22T16:13:32;1.20;67.60
74511;DHT22;62991;50.040;18.400;2023-11-22T16:16:33;1.50;66.90
74511;DHT22;62991;50.040;18.400;2023-11-22T16:19:34;1.80;66.20
74511;DHT22;62991;50.040;18.400;2023-11-22T16:22:35;2.00;65.20
74511;DHT22;62991;50.040;18.400;2023-11-22T16:25:38;2.00;64.40
74511;DHT22;62991;50.040;18.400;2023-11-22T16:28:40;2.10;64.30
74511;DHT22;62991;50.040;18.400;2023-11-22T16:31:41;2.10;63.60
74511;DHT22;62991;50.040;18.400;2023-11-22T16:34:42;2.00;63.50
74511;DHT22;62991;50.040;18.400;2023-11-22T16:37:43;1.70;64.40
74511;DHT22;62991;50.040;18.400;2023-11-22T16:40:43;1.90;64.60
74511;DHT22;62991;50.040;18.400;2023-11-22T16:43:46;2.10;64.30
74511;DHT22;62991;50.040;18.400;2023-11-22T16:46:47;2.10;63.70
74511;DHT22;62991;50.040;18.400;2023-11-22T16:49:49;2.10;64.30
74511;DHT22;62991;50.040;18.400;2023-11-22T16:52:50;2.10;63.70
74511;DHT22;62991;50.040;18.400;2023-11-22T16:55:51;1.90;64.00
74511;DHT22;62991;50.040;18.400;2023-11-22T16:58:53;1.80;63.90
74511;DHT22;62991;50.040;18.400;2023-11-22T17:01:53;1.70;64.50
74511;DHT22;62991;50.040;18.400;2023-11-22T17:04:54;1.50;64.50
74511;DHT22;62991;50.040;18.400;2023-11-22T17:07:56;1.50;65.00
74511;DHT22;62991;50.040;18.400;2023-11-22T17:11:00;1.70;64.80
74511;DHT22;62991;50.040;18.400;2023-11-22T17:14:01;1.90;64.60
74511;DHT22;62991;50.040;18.400;2023-11-22T17:17:04;1.70;64.40
74511;DHT22;62991;50.040;18.400;2023-11-22T17:20:05;1.60;64.30
74511;DHT22;62991;50.040;18.400;2023-11-22T17:23:06;1.30;65.40
74511;DHT22;62991;50.040;18.400;2023-11-22T17:26:06;1.40;65.10
74511;DHT22;62991;50.040;18.400;2023-11-22T17:29:07;1.30;66.90
74511;DHT22;62991;50.040;18.400;2023-11-22T17:32:08;1.50;68.60
74511;DHT22;62991;50.040;18.400;2023-11-22T17:35:10;1.20;70.30
74511;DHT22;62991;50.040;18.400;2023-11-22T17:38:12;1.50;69.90
74511;DHT22;62991;50.040;18.400;2023-11-22T17:41:13;1.20;66.20
74511;DHT22;62991;50.040;18.400;2023-11-22T17:44:14;0.90;66.90
74511;DHT22;62991;50.040;18.400;2023-11-22T17:47:23;0.90;67.00
74511;DHT22;62991;50.040;18.400;2023-11-22T17:50:26;1.00;66.60
74511;DHT22;62991;50.040;18.400;2023-11-22T17:53:26;1.10;66.70
74511;DHT22;62991;50.040;18.400;2023-11-22T17:56:27;1.20;65.50
74511;DHT22;62991;50.040;18.400;2023-11-22T17:59:28;1.20;65.20
74511;DHT22;62991;50.040;18.400;2023-11-22T18:02:28;1.40;65.10
74511;DHT22;62991;50.040;18.400;2023-11-22T18:05:29;1.20;65.40
74511;DHT22;62991;50.040;18.400;2023-11-22T18:08:30;1.10;66.70
74511;DHT22;62991;50.040;18.400;2023-11-22T18:11:30;1.20;65.70
74511;DHT22;62991;50.040;18.400;2023-11-22T18:14:35;1.20;65.40
74511;DHT22;62991;50.040;18.400;2023-11-22T18:17:36;1.00;65.80
74511;DHT22;62991;50.040;18.400;2023-11-22T18:20:37;1.20;65.00
74511;DHT22;62991;50.040;18.400;2023-11-22T18:23:40;1.00;65.30
74511;DHT22;62991;50.040;18.400;2023-11-22T18:26:44;1.00;65.60
74511;DHT22;62991;50.040;18.400;2023-11-22T18:29:45;0.60;66.50
74511;DHT22;62991;50.040;18.400;2023-11-22T18:32:45;0.50;67.40
74511;DHT22;62991;50.040;18.400;2023-11-22T18:35:46;0.60;68.20
74511;DHT22;62991;50.040;18.400;2023-11-22T18:38:47;0.80;68.40
74511;DHT22;62991;50.040;18.400;2023-11-22T18:41:48;0.80;66.60
74511;DHT22;62991;50.040;18.400;2023-11-22T18:44:49;0.60;67.10
74511;DHT22;62991;50.040;18.400;2023-11-22T18:47:49;0.60;67.20
74511;DHT22;62991;50.040;18.400;2023-11-22T18:50:51;0.70;66.40
74511;DHT22;62991;50.040;18.400;2023-11-22T18:53:52;0.40;67.00
74511;DHT22;62991;50.040;18.400;2023-11-22T18:56:53;0.50;66.40
74511;DHT22;62991;50.040;18.400;2023-11-22T18:59:54;0.80;65.90
74511;DHT22;62991;50.040;18.400;2023-11-22T19:02:56;0.90;65.50
74511;DHT22;62991;50.040;18.400;2023-11-22T19:05:57;1.00;65.70